Nearby METAR Reports

 

KMSN - Madison, Wisconsin, USA
Distance from station: WNW 8mi, 13km
Updated: Mon, Apr-15-2024 7:53pm CDT
Partly cloudy
Partly cloudy
 Wind from E
Wind: E 6 mph , 9 km/h
Temperature: 63°F , 17°C
Dew Point: 36°F , 2°C
Humidity: 37%
Barometer: 29.99 inHg , 1015.6 hPa
Clouds: Partly cloudy
Visibility: 10 miles , 16 km
Cloud details: Partly cloudy 16000 ft
2024/04/16 00:53 KMSN 160053Z 08005KT 10SM SCT160 17/02 A2999 RMK AO2 SLP157 T01720017
KC29 - Middleton, Wisconsin, USA
Distance from station: W 17mi, 27km
Updated: Mon, Apr-15-2024 7:55pm CDT
Clear
Clear
 Wind from NE
Wind: NE 6 mph , 9 km/h
Temperature: 63°F , 17°C
Dew Point: 45°F , 7°C
Humidity: 52%
Barometer: 30.00 inHg , 1015.9 hPa
Clouds: Clear
Visibility: 10 miles , 16 km
2024/04/16 00:55 KC29 160055Z AUTO 05005KT 10SM CLR 17/07 A3000 RMK AO1 T01670074
 
KRYV - Watertown, Wisconsin, USA
Distance from station: ENE 25mi, 40km
Updated: Mon, Apr-15-2024 7:55pm CDT
Clear
Clear
 Wind from calm
Wind: Calm
Temperature: 61°F , 16°C
Dew Point: 43°F , 6°C
Humidity: 52%
Barometer: 30.00 inHg , 1015.9 hPa
Clouds: Clear
Visibility: 10 miles , 16 km
2024/04/16 00:55 KRYV 160055Z AUTO 00000KT 10SM CLR 16/06 A3000 RMK AO2 T01590056
KUNU - Juneau, Wisconsin, USA
Distance from station: NE 33mi, 54km
Updated: Mon, Apr-15-2024 7:55pm CDT
Clear
Clear
 Wind from NNE
Wind: NNE 6 mph , 9 km/h
Temperature: 63°F , 17°C
Dew Point: 32°F , 0°C
Humidity: 32%
Barometer: 30.02 inHg , 1016.6 hPa
Clouds: Clear
Visibility: 10 miles , 16 km
2024/04/16 00:55 KUNU 160055Z AUTO 03005KT 10SM CLR 17/00 A3002 RMK AO2 T01671005
 
KJVL - Janesville/Rock, Wisconsin, USA
Distance from station: SSE 34mi, 55km
Updated: Mon, Apr-15-2024 7:45pm CDT
Clear
Clear
 Wind from ENE
Wind: ENE 7 mph , 11 km/h
Temperature: 64°F , 18°C
Dew Point: 27°F , -3°C
Humidity: 24%
Barometer: 29.98 inHg , 1015.2 hPa
Clouds: Clear
Visibility: 10 miles , 16 km
2024/04/16 00:45 KJVL 160045Z 07006KT 10SM CLR 18/M03 A2998
KEFT - Monroe, Wisconsin, USA
Distance from station: SSW 39mi, 63km
Updated: Mon, Apr-15-2024 7:55pm CDT
Clear
Clear
 Wind from ENE
Wind: ENE 6 mph , 9 km/h
Temperature: 66°F , 19°C
Dew Point: 43°F , 6°C
Humidity: 43%
Barometer: 29.98 inHg , 1015.2 hPa
Clouds: Clear
Visibility: 10 miles , 16 km
2024/04/16 00:55 KEFT 160055Z AUTO 07005KT 10SM CLR 19/06 A2998 RMK AO2 T01940064
 
KDLL - Dells/Baraboo, Wisconsin, USA
Distance from station: NW 41mi, 65km
Updated: Mon, Apr-15-2024 7:55pm CDT
Clear
Clear
 Wind from calm
Wind: Calm
Temperature: 66°F , 19°C
Dew Point: 32°F , 0°C
Humidity: 28%
Barometer: 30.00 inHg , 1015.9 hPa
Clouds: Clear
Visibility: 10 miles , 16 km
2024/04/16 00:55 KDLL 160055Z AUTO 00000KT 10SM CLR 19/00 A3000 RMK AO2 T01910001
KUES - Waukesha Cnty, Wisconsin, USA
Distance from station: E 48mi, 77km
Updated: Mon, Apr-15-2024 7:45pm CDT
Clear
Clear
 Wind from E
Wind: E 9 mph , 15 km/h
Temperature: 57°F , 14°C
Dew Point: 34°F , 1°C
Humidity: 41%
Barometer: 30.03 inHg , 1016.9 hPa
Clouds: Clear
Visibility: 10 miles , 16 km
2024/04/16 00:45 KUES 160045Z 09008KT 10SM CLR 14/01 A3003
 
KC35 - Reedsburg, Wisconsin, USA
Distance from station: NW 50mi, 80km
Updated: Mon, Apr-15-2024 7:55pm CDT
Clear
Clear
 Wind from NE
Wind: NE 5 mph , 7 km/h
Temperature: 66°F , 19°C
Dew Point: 32°F , 0°C
Humidity: 28%
Barometer: 29.99 inHg , 1015.6 hPa
Clouds: Clear
Visibility: 10 miles , 16 km
2024/04/16 00:55 KC35 160055Z AUTO 04004KT 10SM CLR 19/00 A2999 RMK AO2 T01861002 PWINO
KLNR - Lone Rock, Wisconsin, USA
Distance from station: W 50mi, 81km
Updated: Mon, Apr-15-2024 7:56pm CDT
Clear
Clear
 Wind from NE
Wind: NE 9 mph , 15 km/h
Temperature: 64°F , 18°C
Dew Point: 34°F , 1°C
Humidity: 32%
Barometer: 29.97 inHg , 1014.9 hPa
Clouds: Clear
Visibility: 10 miles , 16 km
2024/04/16 00:56 KLNR 160056Z AUTO 05008KT 10SM CLR 18/01 A2997 RMK AO2 SLP146 T01830011
 
KBUU - Burlington, Wisconsin, USA
Distance from station: ESE 54mi, 86km
Updated: Mon, Apr-15-2024 7:55pm CDT
Clear
Clear
 Wind from E
Wind: E 9 mph , 15 km/h
Temperature: 61°F , 16°C
Dew Point: 36°F , 2°C
Humidity: 39%
Barometer: 30.02 inHg , 1016.6 hPa
Clouds: Clear
Visibility: 10 miles , 16 km
2024/04/16 00:55 KBUU 160055Z AUTO 10008KT 10SM CLR 16/02 A3002 RMK AO2 T01620016 PWINO
KMRJ - Mineral Point, Wisconsin, USA
Distance from station: WSW 54mi, 88km
Updated: Mon, Apr-15-2024 7:55pm CDT
Clear
Clear
 Wind from E
Wind: E 5 mph , 7 km/h
Temperature: 66°F , 19°C
Dew Point: 34°F , 1°C
Humidity: 30%
Barometer: 30.00 inHg , 1015.9 hPa
Clouds: Clear
Visibility: 10 miles , 16 km
2024/04/16 00:55 KMRJ 160055Z AUTO 09004KT 10SM CLR 19/01 A3000 RMK AO2 PWINO
 
KETB - West Bend, Wisconsin, USA
Distance from station: ENE 58mi, 93km
Updated: Mon, Apr-15-2024 7:55pm CDT
Clear
Clear
 Wind from E
Wind: E 6 mph , 9 km/h
Temperature: 55°F , 13°C
Dew Point: 32°F , 0°C
Humidity: 41%
Barometer: 30.04 inHg , 1017.3 hPa
Clouds: Clear
Visibility: 10 miles , 16 km
2024/04/16 00:55 KETB 160055Z AUTO 09005KT 10SM CLR 13/00 A3004 RMK AO2
KFLD - Fond Du Lac, Wisconsin, USA
Distance from station: NE 58mi, 94km
Updated: Mon, Apr-15-2024 7:53pm CDT
Clear
Clear
 Wind from E
Wind: E 15 mph , 24 km/h, Gust: 23 mph , 37 km/h
Temperature: 63°F , 17°C
Dew Point: 34°F , 1°C
Humidity: 34%
Barometer: 30.03 inHg , 1016.9 hPa
Clouds: Clear
Visibility: 10 miles , 16 km
2024/04/16 00:53 KFLD 160053Z AUTO 08013G20KT 10SM CLR 17/01 A3003 RMK AO2 SLP169 T01670011
 
KMWC - Milwaukee/Lawren, Wisconsin, USA
Distance from station: E 59mi, 94km
Updated: Mon, Apr-15-2024 7:45pm CDT
Clear
Clear
 Wind from ESE
Wind: ESE 6 mph , 9 km/h
Temperature: 63°F , 17°C
Dew Point: 32°F , 0°C
Humidity: 32%
Barometer: 30.04 inHg , 1017.3 hPa
Clouds: Clear
Visibility: 10 miles , 16 km
2024/04/16 00:45 KMWC 160045Z 11005KT 10SM CLR 17/00 A3004
KFEP - Freeport, Illinois, USA
Distance from station: SSW 62mi, 100km
Updated: Mon, Apr-15-2024 7:55pm CDT
Clear
Clear
 Wind from E
Wind: E 6 mph , 9 km/h
Temperature: 66°F , 19°C
Dew Point: 34°F , 1°C
Humidity: 30%
Barometer: 29.99 inHg , 1015.6 hPa
Clouds: Clear
2024/04/16 00:55 KFEP 160055Z AUTO 09005KT CLR 19/01 A2999 RMK AO2 T01850011
 
KRFD - Rockford, Illinois, USA
Distance from station: S 62mi, 100km
Updated: Mon, Apr-15-2024 7:54pm CDT
Few Clouds
Few Clouds
 Wind from ENE
Wind: ENE 5 mph , 7 km/h
Temperature: 68°F , 20°C
Dew Point: 36°F , 2°C
Humidity: 30%
Barometer: 29.99 inHg , 1015.6 hPa
Clouds: Few Clouds
Visibility: 10 miles , 16 km
Cloud details: Few Clouds 20000 ft
2024/04/16 00:54 KRFD 160054Z 07004KT 10SM FEW200 20/02 A2999 RMK AO2 SLP155 T02000017
KY50 - Wautoma, Wisconsin, USA
Distance from station: N 65mi, 104km
Updated: Mon, Apr-15-2024 7:56pm CDT
Clear
Clear
 Wind from NE
Wind: NE 5 mph , 7 km/h
Temperature: 63°F , 17°C
Dew Point: 21°F , -6°C
Humidity: 20%
Barometer: 30.03 inHg , 1016.9 hPa
Clouds: Clear
Visibility: 10 miles , 16 km
2024/04/16 00:56 KY50 160056Z AUTO 04004KT 10SM CLR 17/M06 A3003 RMK AO2 SLP167 T01671056 $
 
KMKE - Milwaukee, Wisconsin, USA
Distance from station: E 66mi, 107km
Updated: Mon, Apr-15-2024 7:52pm CDT
Few Clouds
Few Clouds
 Wind from ESE
Wind: ESE 7 mph , 11 km/h
Temperature: 55°F , 13°C
Dew Point: 39°F , 4°C
Humidity: 55%
Barometer: 30.02 inHg , 1016.6 hPa
Clouds: Few Clouds
Visibility: 10 miles , 16 km
Cloud details: Few Clouds 15000 ft
2024/04/16 00:52 KMKE 160052Z 11006KT 10SM FEW150 13/04 A3002 RMK AO2 SLP167 T01280039
KOSH - Oshkosh, Wisconsin, USA
Distance from station: NNE 68mi, 110km
Updated: Mon, Apr-15-2024 7:53pm CDT
Clear
Clear
 Wind from E
Wind: E 14 mph , 22 km/h
Temperature: 61°F , 16°C
Dew Point: 39°F , 4°C
Humidity: 45%
Barometer: 30.03 inHg , 1016.9 hPa
Clouds: Clear
Visibility: 10 miles , 16 km
2024/04/16 00:53 KOSH 160053Z 10012KT 10SM CLR 16/04 A3003 RMK AO2 SLP167 T01560044